Time;durP1;ratioP1;P1;durP2;ratioP2;P2;SDS_P1;SDS_P2;PMS_P1;PMS_P2;Temp;Humidity;BMP_temperature;BMP_pressure;BME280_temperature;BME280_humidity;BME280_pressure;Samples;Min_cycle;Max_cycle;Signal;HPM_P1;HPM_P2
2023/12/01 00:01:47;;;;;;;94.03;14.50;;;;;;;;;;5080664;28;20312;-71
2023/12/01 00:04:12;;;;;;;63.72;14.30;;;2.30;99.90;;;;;;5080637;28;20025;-70
2023/12/01 00:06:38;;;;;;;25.77;13.20;;;2.40;99.90;;;;;;5080621;28;20092;-71
2023/12/01 00:09:04;;;;;;;33.63;13.82;;;2.40;99.90;;;;;;5080666;28;20017;-71
2023/12/01 00:11:29;;;;;;;163.40;15.40;;;2.70;99.90;;;;;;5080630;28;20070;-70
2023/12/01 00:13:55;;;;;;;60.75;15.65;;;;;;;;;;5080566;28;20324;-71
2023/12/01 00:16:21;;;;;;;56.53;16.75;;;;;;;;;;5080521;28;20094;-70
2023/12/01 00:18:47;;;;;;;30.23;16.00;;;2.50;99.90;;;;;;5080444;28;20020;-71
2023/12/01 00:21:13;;;;;;;31.80;15.25;;;2.80;99.90;;;;;;5080421;28;20047;-71
2023/12/01 00:23:38;;;;;;;32.60;15.02;;;;;;;;;;5080292;28;20027;-70
2023/12/01 00:26:04;;;;;;;100.40;17.17;;;2.20;99.90;;;;;;5080804;28;20016;-71
2023/12/01 00:28:30;;;;;;;38.10;15.95;;;;;;;;;;5080719;28;20017;-71
2023/12/01 00:30:56;;;;;;;33.10;15.48;;;;;;;;;;5080429;28;20325;-68
2023/12/01 00:33:22;;;;;;;43.60;16.65;;;2.50;99.90;;;;;;5080324;28;20054;-69
2023/12/01 00:35:48;;;;;;;73.82;16.85;;;2.30;99.90;;;;;;5080451;28;20024;-68
2023/12/01 00:38:13;;;;;;;27.63;14.57;;;2.50;99.90;;;;;;5080502;28;20311;-69
2023/12/01 00:40:39;;;;;;;33.42;15.77;;;2.50;99.90;;;;;;5080203;28;20078;-69
2023/12/01 00:43:05;;;;;;;31.77;14.38;;;;;;;;;;5080309;28;20016;-69
2023/12/01 00:45:31;;;;;;;30.88;15.52;;;;;;;;;;5080210;28;20063;-69
2023/12/01 00:47:57;;;;;;;42.72;14.75;;;;;;;;;;5080199;28;20043;-69
2023/12/01 00:50:23;;;;;;;32.42;14.35;;;2.40;99.90;;;;;;5079995;28;20422;-69
2023/12/01 00:52:49;;;;;;;33.70;16.38;;;2.60;99.90;;;;;;5080004;28;20066;-69
2023/12/01 00:55:14;;;;;;;32.58;15.55;;;2.40;99.90;;;;;;5080242;28;20029;-68
2023/12/01 00:57:40;;;;;;;35.30;15.98;;;2.50;99.90;;;;;;5081611;28;20307;-69
2023/12/01 01:00:06;;;;;;;40.55;15.35;;;;;;;;;;5083710;28;20060;-69
2023/12/01 01:02:32;;;;;;;28.77;14.95;;;;;;;;;;5082487;28;20343;-69
2023/12/01 01:04:58;;;;;;;33.28;15.27;;;;;;;;;;5083555;28;20116;-71
2023/12/01 01:07:24;;;;;;;34.15;16.30;;;2.70;99.90;;;;;;5083639;28;20027;-70
2023/12/01 01:09:50;;;;;;;31.45;15.52;;;2.70;99.90;;;;;;5082276;28;20032;-69
2023/12/01 01:12:16;;;;;;;44.10;15.23;;;;;;;;;;5083363;28;20120;-70
2023/12/01 01:14:42;;;;;;;38.60;16.08;;;;;;;;;;5083411;28;20036;-70
2023/12/01 01:17:08;;;;;;;33.67;15.07;;;;;;;;;;5083162;28;20029;-71
2023/12/01 01:19:34;;;;;;;36.65;14.80;;;2.50;99.90;;;;;;5083505;28;20062;-72
2023/12/01 01:21:59;;;;;;;28.50;14.88;;;2.50;99.90;;;;;;5083055;28;20033;-70
2023/12/01 01:24:25;;;;;;;42.08;15.60;;;;;;;;;;5083204;28;20036;-69
2023/12/01 01:26:51;;;;;;;34.75;14.45;;;2.70;99.90;;;;;;5083270;28;20028;-71
2023/12/01 01:29:17;;;;;;;31.15;15.73;;;;;;;;;;5083265;28;20249;-72
2023/12/01 01:31:43;;;;;;;30.27;15.48;;;;;;;;;;5083140;28;20032;-72
2023/12/01 01:34:09;;;;;;;30.33;15.45;;;2.50;99.90;;;;;;5083256;28;20040;-72
2023/12/01 01:36:34;;;;;;;32.88;17.08;;;2.50;99.90;;;;;;5083135;28;20019;-72
2023/12/01 01:39:00;;;;;;;40.65;16.42;;;3.10;99.90;;;;;;5083137;28;20016;-72
2023/12/01 01:41:26;;;;;;;33.60;16.45;;;;;;;;;;5082803;28;20033;-71
2023/12/01 01:43:52;;;;;;;39.47;17.58;;;2.70;99.90;;;;;;5083010;28;20013;-70
2023/12/01 01:46:18;;;;;;;38.90;16.95;;;;;;;;;;5082756;28;20099;-70
2023/12/01 01:48:44;;;;;;;88.28;17.55;;;2.60;99.90;;;;;;5082629;28;20035;-72
2023/12/01 01:51:10;;;;;;;85.97;17.65;;;2.30;99.90;;;;;;5082602;28;20055;-72
2023/12/01 01:53:43;;;;;;;193.43;20.75;;;2.40;99.90;;;;;;5082790;28;20023;-68
2023/12/01 01:56:12;;;;;;;99.03;19.33;;;2.50;99.90;;;;;;5082774;28;20024;-68
2023/12/01 01:58:39;;;;;;;157.25;19.33;;;2.40;99.90;;;;;;5082843;28;20033;-68
2023/12/01 02:01:07;;;;;;;59.30;16.48;;;2.30;99.90;;;;;;5082650;28;20024;-68
2023/12/01 02:03:33;;;;;;;230.17;21.73;;;2.50;99.90;;;;;;5082536;28;20020;-68
2023/12/01 02:06:06;;;;;;;185.80;18.58;;;;;;;;;;5082481;28;20095;-68
2023/12/01 02:08:33;;;;;;;84.03;19.15;;;;;;;;;;5080971;28;20043;-68
2023/12/01 02:11:00;;;;;;;117.45;18.60;;;2.40;99.90;;;;;;5082294;28;20062;-68
2023/12/01 02:13:28;;;;;;;171.68;19.92;;;;;;;;;;5082309;28;20555;-68
2023/12/01 02:15:54;;;;;;;57.95;18.83;;;2.40;99.90;;;;;;5082442;28;20044;-68
2023/12/01 02:18:25;;;;;;;42.35;18.30;;;2.30;99.90;;;;;;5082235;28;20033;-68
2023/12/01 02:20:52;;;;;;;41.28;18.55;;;2.60;99.90;;;;;;5081885;28;20339;-68
2023/12/01 02:23:18;;;;;;;51.20;18.30;;;2.30;99.90;;;;;;5082241;28;20020;-68
2023/12/01 02:25:45;;;;;;;43.58;18.65;;;2.20;99.90;;;;;;5082212;28;20032;-68
2023/12/01 02:28:11;;;;;;;45.20;20.08;;;2.30;99.90;;;;;;5082178;28;20028;-68
2023/12/01 02:30:37;;;;;;;37.10;17.95;;;;;;;;;;5081957;28;20040;-68
2023/12/01 02:33:03;;;;;;;39.70;17.05;;;2.40;99.90;;;;;;5082100;28;20021;-68
2023/12/01 02:35:29;;;;;;;38.40;16.63;;;;;;;;;;5080663;28;20290;-68
2023/12/01 02:37:59;;;;;;;48.95;18.00;;;2.30;99.90;;;;;;5081659;28;20255;-69
2023/12/01 02:40:27;;;;;;;34.83;17.38;;;2.40;99.90;;;;;;5081640;28;20375;-69
2023/12/01 02:42:53;;;;;;;46.83;17.75;;;2.30;99.90;;;;;;5081730;28;20020;-71
2023/12/01 02:45:20;;;;;;;43.67;17.42;;;2.40;99.90;;;;;;5081715;28;20032;-70
2023/12/01 02:47:49;;;;;;;46.92;18.10;;;2.40;99.90;;;;;;5081757;28;20036;-69
2023/12/01 02:50:19;;;;;;;64.05;16.92;;;3.10;99.90;;;;;;5081623;28;20036;-70
2023/12/01 02:52:45;;;;;;;;;;;2.40;99.90;;;;;;5082141;28;20339;-70
2023/12/01 02:55:11;;;;;;;44.60;15.15;;;2.20;99.90;;;;;;5081858;28;19983;-70
2023/12/01 02:57:39;;;;;;;49.63;15.50;;;2.20;99.90;;;;;;5081464;28;20021;-71
2023/12/01 03:00:15;;;;;;;46.20;15.85;;;2.10;99.90;;;;;;5081798;28;20056;-71
2023/12/01 03:02:42;;;;;;;44.53;16.67;;;2.10;99.90;;;;;;5081633;28;20025;-71
2023/12/01 03:05:09;;;;;;;155.48;16.50;;;2.00;99.90;;;;;;5081312;28;20055;-70
2023/12/01 03:07:39;;;;;;;128.82;17.65;;;2.10;99.90;;;;;;5081406;28;20025;-70
2023/12/01 03:10:07;;;;;;;239.00;18.48;;;2.10;99.90;;;;;;5081243;28;20055;-70
2023/12/01 03:12:33;;;;;;;248.27;19.23;;;2.20;99.90;;;;;;5081136;28;20017;-70
2023/12/01 03:14:59;;;;;;;126.38;16.38;;;2.00;99.90;;;;;;5081184;28;20017;-69
2023/12/01 03:17:25;;;;;;;66.10;15.45;;;2.10;99.90;;;;;;5081347;28;20028;-70
2023/12/01 03:19:51;;;;;;;46.97;16.38;;;2.30;99.90;;;;;;5079559;28;20031;-70
2023/12/01 03:22:18;;;;;;;58.00;16.83;;;2.50;99.90;;;;;;5079778;28;20397;-73
2023/12/01 03:24:47;;;;;;;61.92;16.75;;;2.10;99.90;;;;;;5079995;28;20319;-71
2023/12/01 03:27:25;;;;;;;89.50;17.63;;;2.20;99.90;;;;;;5081167;28;20024;-71
2023/12/01 03:29:52;;;;;;;106.55;15.60;;;2.20;99.90;;;;;;5079737;28;20032;-69
2023/12/01 03:32:18;;;;;;;59.28;15.45;;;2.20;99.90;;;;;;5080914;28;20021;-68
2023/12/01 03:34:44;;;;;;;103.40;15.38;;;2.30;99.90;;;;;;5081180;28;20239;-69
2023/12/01 03:37:10;;;;;;;59.28;15.13;;;;;;;;;;5080821;28;20351;-68
2023/12/01 03:39:36;;;;;;;49.33;15.10;;;;;;;;;;5080802;28;20063;-69
2023/12/01 03:42:03;;;;;;;37.65;15.25;;;2.40;99.90;;;;;;5080792;28;20020;-68
2023/12/01 03:44:29;;;;;;;42.83;14.85;;;2.20;99.90;;;;;;5080637;28;20008;-69
2023/12/01 03:46:55;;;;;;;58.50;15.50;;;;;;;;;;5080693;28;20031;-70
2023/12/01 03:49:21;;;;;;;62.13;15.43;;;;;;;;;;5080699;28;20031;-68
2023/12/01 03:51:47;;;;;;;52.78;15.15;;;2.20;99.90;;;;;;5080762;28;20159;-70
2023/12/01 03:54:13;;;;;;;84.45;15.90;;;2.30;99.90;;;;;;5080783;28;20016;-70
2023/12/01 03:56:39;;;;;;;64.07;14.68;;;2.40;99.90;;;;;;5080775;28;20307;-70
2023/12/01 03:59:09;;;;;;;82.18;15.95;;;;;;;;;;5080757;28;20181;-70
2023/12/01 04:01:39;;;;;;;33.15;13.82;;;2.40;99.90;;;;;;5080640;28;20204;-70
2023/12/01 04:04:05;;;;;;;39.92;14.80;;;2.30;99.90;;;;;;5080645;28;20012;-70
2023/12/01 04:06:35;;;;;;;35.20;15.10;;;2.30;99.90;;;;;;5080686;28;20028;-70
2023/12/01 04:09:09;;;;;;;40.88;13.43;;;;;;;;;;5080516;28;20186;-73
2023/12/01 04:11:35;;;;;;;44.70;13.93;;;2.30;99.90;;;;;;5080526;28;20070;-69
2023/12/01 04:14:03;;;;;;;61.05;13.80;;;;;;;;;;5080476;28;20028;-69
2023/12/01 04:16:29;;;;;;;132.20;15.03;;;;;;;;;;5080305;28;20028;-68
2023/12/01 04:18:55;;;;;;;53.17;12.50;;;;;;;;;;5080234;28;20027;-68
2023/12/01 04:21:22;;;;;;;68.57;14.90;;;;;;;;;;5080084;28;20259;-68
2023/12/01 04:23:48;;;;;;;103.00;14.20;;;;;;;;;;5080164;28;20037;-68
2023/12/01 04:26:13;;;;;;;78.78;13.32;;;2.40;99.90;;;;;;5080227;28;20031;-69
2023/12/01 04:28:39;;;;;;;36.25;12.88;;;1.80;99.90;;;;;;5080101;28;20262;-69
2023/12/01 04:31:05;;;;;;;162.88;15.27;;;2.40;99.90;;;;;;5079945;28;20301;-68
2023/12/01 04:33:32;;;;;;;73.32;13.88;;;2.20;99.90;;;;;;5083382;28;20028;-72
2023/12/01 04:35:58;;;;;;;57.03;14.50;;;;;;;;;;5084127;28;20032;-71
2023/12/01 04:38:23;;;;;;;89.15;13.52;;;1.90;99.90;;;;;;5084228;28;20035;-71
2023/12/01 04:40:50;;;;;;;50.45;13.70;;;2.50;99.90;;;;;;5084159;28;20109;-70
2023/12/01 04:43:17;;;;;;;49.03;12.52;;;;;;;;;;5084248;28;20414;-69
2023/12/01 04:45:43;;;;;;;48.92;14.18;;;2.20;99.90;;;;;;5083865;28;20087;-70
2023/12/01 04:48:09;;;;;;;173.32;15.38;;;2.20;99.90;;;;;;5084103;28;20031;-70
2023/12/01 04:50:44;;;;;;;154.02;14.55;;;2.10;99.90;;;;;;5083661;28;20043;-69
2023/12/01 04:53:11;;;;;;;48.65;13.52;;;2.20;99.90;;;;;;5083965;28;20063;-70
2023/12/01 04:55:38;;;;;;;118.70;13.93;;;2.20;99.90;;;;;;5083872;28;20095;-70
2023/12/01 04:58:04;;;;;;;70.00;14.30;;;2.60;99.90;;;;;;5083625;28;20216;-71
2023/12/01 05:00:30;;;;;;;130.80;16.15;;;;;;;;;;5083630;28;20048;-71
2023/12/01 05:03:00;;;;;;;167.80;17.85;;;2.20;99.90;;;;;;5083487;28;20025;-69
2023/12/01 05:05:30;;;;;;;111.18;16.50;;;2.30;99.90;;;;;;5083531;28;20048;-70
2023/12/01 05:07:58;;;;;;;88.82;16.77;;;2.20;99.90;;;;;;5083494;28;20065;-70
2023/12/01 05:10:25;;;;;;;75.70;19.25;;;2.30;99.90;;;;;;5082205;28;20032;-71
2023/12/01 05:12:54;;;;;;;151.63;17.90;;;2.30;99.90;;;;;;5083297;28;20034;-69
2023/12/01 05:15:25;;;;;;;244.23;16.13;;;2.30;99.90;;;;;;5083401;28;20379;-69
2023/12/01 05:17:58;;;;;;;157.30;13.00;;;2.20;99.90;;;;;;5083344;28;20051;-69
2023/12/01 05:20:25;;;;;;;238.68;15.80;;;2.20;99.90;;;;;;5093434;28;20120;-69
2023/12/01 05:22:53;;;;;;;177.07;15.40;;;2.10;99.90;;;;;;5103456;28;20123;-69
2023/12/01 05:25:20;;;;;;;193.90;14.73;;;2.00;99.90;;;;;;5103700;28;20024;-70
2023/12/01 05:27:47;;;;;;;106.50;14.35;;;2.10;99.90;;;;;;5103397;28;20040;-70
2023/12/01 05:30:15;;;;;;;133.25;15.57;;;2.30;99.90;;;;;;5103328;28;20028;-69
2023/12/01 05:32:47;;;;;;;118.20;14.02;;;2.10;99.90;;;;;;5103404;28;20296;-70
2023/12/01 05:35:14;;;;;;;168.38;15.60;;;2.10;99.90;;;;;;5103481;28;20039;-71
2023/12/01 05:37:47;;;;;;;140.18;14.68;;;2.20;99.90;;;;;;5103422;28;20020;-70
2023/12/01 05:40:14;;;;;;;220.63;13.57;;;;;;;;;;5103496;28;20020;-71
2023/12/01 05:42:44;;;;;;;30.65;13.30;;;2.00;99.90;;;;;;5102683;28;20024;-71
2023/12/01 05:45:11;;;;;;;30.42;12.52;;;2.30;99.90;;;;;;5103265;28;20032;-70
2023/12/01 05:47:45;;;;;;;39.60;16.00;;;2.40;99.90;;;;;;5102958;28;20096;-71
2023/12/01 05:50:20;;;;;;;54.55;17.65;;;2.40;99.90;;;;;;5103166;28;20019;-70
2023/12/01 05:52:46;;;;;;;46.28;16.48;;;2.40;99.90;;;;;;5103282;28;20038;-70
2023/12/01 05:55:17;;;;;;;31.80;15.23;;;2.30;99.90;;;;;;5102932;28;20315;-71
2023/12/01 05:57:54;;;;;;;44.97;13.00;;;2.40;99.90;;;;;;5094388;28;20028;-70
2023/12/01 06:00:21;;;;;;;31.98;13.20;;;2.30;99.90;;;;;;5094046;28;20327;-69
2023/12/01 06:02:49;;;;;;;73.43;14.60;;;2.40;99.90;;;;;;5089167;28;20074;-70
2023/12/01 06:05:15;;;;;;;169.77;13.75;;;2.10;99.90;;;;;;5081843;28;20029;-71
2023/12/01 06:07:43;;;;;;;87.03;12.43;;;2.20;99.90;;;;;;5098704;28;20031;-71
2023/12/01 06:10:12;;;;;;;215.43;13.88;;;2.20;99.90;;;;;;5092490;28;20028;-71
2023/12/01 06:12:41;;;;;;;256.13;14.25;;;2.20;99.90;;;;;;5101385;28;20034;-72
2023/12/01 06:15:13;;;;;;;88.53;12.20;;;2.20;99.90;;;;;;5101179;28;20043;-70
2023/12/01 06:17:39;;;;;;;158.10;12.80;;;2.30;99.90;;;;;;5102038;28;20099;-69
2023/12/01 06:20:16;;;;;;;74.25;12.52;;;;;;;;;;5102313;28;20462;-71
2023/12/01 06:22:52;;;;;;;39.75;13.35;;;2.20;99.90;;;;;;5102025;28;20095;-71
2023/12/01 06:25:19;;;;;;;30.88;11.73;;;2.30;99.90;;;;;;5100782;28;20022;-68
2023/12/01 06:27:46;;;;;;;29.27;11.88;;;2.30;99.90;;;;;;5100988;28;20058;-70
2023/12/01 06:30:14;;;;;;;77.88;11.32;;;2.30;99.90;;;;;;5100612;28;20137;-69
2023/12/01 06:32:46;;;;;;;30.55;11.85;;;2.30;99.90;;;;;;5100625;28;20035;-69
2023/12/01 06:35:14;;;;;;;84.78;10.55;;;2.20;99.90;;;;;;5101305;28;20020;-69
2023/12/01 06:37:40;;;;;;;65.75;11.60;;;2.40;99.90;;;;;;5101584;28;20020;-68
2023/12/01 06:40:15;;;;;;;41.25;10.63;;;2.40;99.90;;;;;;5101706;28;20034;-69
2023/12/01 06:42:54;;;;;;;71.75;12.50;;;2.50;99.90;;;;;;5101764;28;20035;-68
2023/12/01 06:45:23;;;;;;;51.72;11.38;;;2.60;99.90;;;;;;5100686;28;20347;-68
2023/12/01 06:47:50;;;;;;;178.35;13.65;;;2.60;99.90;;;;;;5101779;28;20383;-71
2023/12/01 06:50:17;;;;;;;68.20;12.20;;;2.70;99.90;;;;;;5101767;28;20518;-69
2023/12/01 06:52:45;;;;;;;35.03;12.30;;;2.40;99.90;;;;;;5101681;28;20023;-68
2023/12/01 06:55:11;;;;;;;53.53;12.85;;;2.40;99.90;;;;;;5100964;28;20031;-68
2023/12/01 06:57:38;;;;;;;36.03;12.60;;;2.40;99.90;;;;;;5100944;28;20032;-68
2023/12/01 07:00:08;;;;;;;131.85;13.63;;;2.40;99.90;;;;;;5101823;28;20042;-69
2023/12/01 07:02:37;;;;;;;30.42;11.88;;;2.40;99.90;;;;;;5101721;28;20086;-69
2023/12/01 07:05:06;;;;;;;;;;;2.30;99.90;;;;;;5102152;28;20024;-69
2023/12/01 07:07:33;;;;;;;37.30;10.95;;;2.40;99.90;;;;;;5101814;28;19900;-68
2023/12/01 07:09:59;;;;;;;28.30;11.77;;;2.50;99.90;;;;;;5101428;28;20055;-69
2023/12/01 07:12:25;;;;;;;65.43;11.40;;;;;;;;;;5101456;28;20062;-69
2023/12/01 07:14:51;;;;;;;79.20;12.23;;;;;;;;;;5098798;28;20335;-68
2023/12/01 07:17:17;;;;;;;79.22;11.90;;;;;;;;;;5095798;28;20024;-69
2023/12/01 07:19:44;;;;;;;26.45;11.18;;;;;;;;;;5095933;28;20019;-69
2023/12/01 07:22:10;;;;;;;26.25;10.77;;;;;;;;;;5096583;28;20040;-69
2023/12/01 07:24:36;;;;;;;24.67;10.80;;;;;;;;;;5101570;28;20073;-69
2023/12/01 07:27:02;;;;;;;21.75;9.93;;;2.70;99.90;;;;;;5101087;28;20024;-69
2023/12/01 07:29:28;;;;;;;22.67;11.25;;;2.70;99.90;;;;;;5101418;28;20085;-68
2023/12/01 07:31:54;;;;;;;23.05;10.80;;;2.70;99.90;;;;;;5101351;28;20091;-69
2023/12/01 07:34:19;;;;;;;23.60;10.50;;;2.90;99.90;;;;;;5101664;28;20064;-68
2023/12/01 07:36:45;;;;;;;21.95;10.63;;;;;;;;;;5101512;28;20043;-69
2023/12/01 07:39:11;;;;;;;24.63;11.27;;;;;;;;;;5101193;28;20028;-68
2023/12/01 07:41:38;;;;;;;30.90;12.18;;;;;;;;;;5101215;28;20095;-68
2023/12/01 07:44:04;;;;;;;20.80;10.15;;;;;;;;;;5100927;28;20027;-69
2023/12/01 07:46:33;;;;;;;27.70;11.60;;;3.10;99.90;;;;;;5100941;28;20051;-68
2023/12/01 07:48:59;;;;;;;29.63;10.90;;;2.80;99.90;;;;;;5100736;28;20413;-69
2023/12/01 07:51:25;;;;;;;28.25;11.20;;;2.70;99.90;;;;;;5100728;28;20032;-69
2023/12/01 07:53:51;;;;;;;24.88;10.90;;;;;;;;;;5099689;28;20024;-70
2023/12/01 07:56:24;;;;;;;25.60;11.32;;;2.80;99.90;;;;;;5100791;28;20024;-69
2023/12/01 07:58:50;;;;;;;30.13;11.85;;;2.90;99.90;;;;;;5100785;28;20020;-69
2023/12/01 08:01:16;;;;;;;32.05;12.68;;;2.80;99.90;;;;;;5100753;28;20106;-69
2023/12/01 08:03:44;;;;;;;61.60;14.43;;;2.80;99.90;;;;;;5101103;28;20046;-69
2023/12/01 08:06:10;;;;;;;33.30;12.98;;;2.70;99.90;;;;;;5100465;28;20023;-70
2023/12/01 08:08:37;;;;;;;38.53;13.63;;;;;;;;;;5100359;28;20262;-69
2023/12/01 08:11:04;;;;;;;31.88;13.27;;;;;;;;;;5100303;28;20226;-70
2023/12/01 08:13:30;;;;;;;30.33;13.80;;;2.80;99.90;;;;;;5100463;28;20027;-69
2023/12/01 08:15:56;;;;;;;34.22;13.63;;;2.90;99.90;;;;;;5099921;28;20119;-69
2023/12/01 08:18:21;;;;;;;43.08;13.95;;;2.80;99.90;;;;;;5100330;28;20028;-69
2023/12/01 08:20:50;;;;;;;40.40;13.80;;;;;;;;;;5100301;28;20083;-69
2023/12/01 08:23:17;;;;;;;28.75;13.10;;;;;;;;;;5100361;28;20038;-69
2023/12/01 08:25:43;;;;;;;26.80;12.60;;;;;;;;;;5100583;28;20040;-69
2023/12/01 08:28:10;;;;;;;26.45;12.13;;;3.10;99.90;;;;;;5100310;28;20016;-69
2023/12/01 08:30:39;;;;;;;25.00;12.27;;;;;;;;;;5097031;28;20270;-68
2023/12/01 08:33:05;;;;;;;29.35;11.88;;;3.30;99.90;;;;;;5099190;28;20023;-68
2023/12/01 08:35:31;;;;;;;28.25;13.07;;;;;;;;;;5100324;28;20031;-68
2023/12/01 08:37:57;;;;;;;25.50;13.35;;;;;;;;;;5093423;28;20028;-69
2023/12/01 08:40:23;;;;;;;40.60;13.18;;;3.10;99.90;;;;;;5080132;28;20101;-69
2023/12/01 08:42:52;;;;;;;34.13;13.30;;;3.10;99.90;;;;;;5080223;28;20304;-69
2023/12/01 08:45:19;;;;;;;50.88;14.13;;;3.20;99.90;;;;;;5080088;28;20020;-67
2023/12/01 08:47:44;;;;;;;35.83;14.73;;;3.00;99.90;;;;;;5080201;28;20212;-68
2023/12/01 08:50:13;;;;;;;136.30;17.30;;;3.00;99.90;;;;;;5081398;28;20296;-68
2023/12/01 08:52:39;;;;;;;43.67;16.00;;;3.20;99.90;;;;;;5095363;28;20339;-68
2023/12/01 08:55:06;;;;;;;38.05;14.48;;;3.10;99.90;;;;;;5079936;28;20020;-68
2023/12/01 08:57:32;;;;;;;36.55;14.93;;;2.90;99.90;;;;;;5080141;28;20044;-68
2023/12/01 08:59:58;;;;;;;33.22;12.60;;;;;;;;;;5079768;28;20084;-68
2023/12/01 09:02:24;;;;;;;27.15;12.80;;;;;;;;;;5079916;28;20050;-68
2023/12/01 09:04:49;;;;;;;30.35;13.00;;;2.60;99.90;;;;;;5079982;28;20040;-68
2023/12/01 09:07:15;;;;;;;29.25;12.75;;;;;;;;;;5080032;28;20079;-68
2023/12/01 09:09:41;;;;;;;24.13;11.70;;;2.70;99.90;;;;;;5079773;28;20331;-68
2023/12/01 09:12:07;;;;;;;24.45;11.55;;;3.00;99.90;;;;;;5079867;28;20082;-68
2023/12/01 09:14:33;;;;;;;23.75;10.98;;;2.80;99.90;;;;;;5079643;28;20023;-68
2023/12/01 09:16:59;;;;;;;25.15;11.38;;;;;;;;;;5079665;28;20052;-68
2023/12/01 09:19:25;;;;;;;25.70;12.40;;;;;;;;;;5082612;28;20332;-68
2023/12/01 09:21:50;;;;;;;29.90;12.15;;;3.00;99.90;;;;;;5083065;28;20076;-68
2023/12/01 09:24:16;;;;;;;21.63;11.05;;;;;;;;;;5101600;28;20042;-68
2023/12/01 09:26:42;;;;;;;20.73;10.38;;;2.90;99.90;;;;;;5103617;28;20020;-68
2023/12/01 09:29:08;;;;;;;26.00;12.63;;;;;;;;;;5103495;28;20075;-68
2023/12/01 09:31:47;;;;;;;24.83;12.52;;;3.00;99.90;;;;;;5103451;28;20040;-68
2023/12/01 09:34:13;;;;;;;21.70;11.48;;;3.20;99.90;;;;;;5102069;28;20016;-68
2023/12/01 09:36:41;;;;;;;24.58;12.48;;;3.00;99.90;;;;;;5103492;28;20419;-68
2023/12/01 09:39:07;;;;;;;21.05;12.23;;;3.20;99.90;;;;;;5103544;28;20302;-69
2023/12/01 09:41:38;;;;;;;17.85;9.65;;;3.20;99.90;;;;;;5103455;28;20180;-68
2023/12/01 09:44:05;;;;;;;20.88;9.68;;;3.10;99.90;;;;;;5095633;28;20028;-68
2023/12/01 09:46:35;;;;;;;19.85;10.40;;;1.00;99.90;;;;;;5091069;28;20231;-68
2023/12/01 09:49:05;;;;;;;21.88;10.90;;;3.30;99.90;;;;;;5101219;28;20043;-67
2023/12/01 09:51:36;;;;;;;19.30;10.65;;;3.30;99.90;;;;;;5103002;28;20050;-66
2023/12/01 09:54:02;;;;;;;19.90;10.98;;;3.10;99.90;;;;;;5103275;28;20069;-68
2023/12/01 09:56:29;;;;;;;15.77;9.55;;;3.40;99.90;;;;;;5103106;28;20032;-68
2023/12/01 09:58:58;;;;;;;15.75;9.93;;;3.30;99.90;;;;;;5102905;28;20020;-67
2023/12/01 10:01:25;;;;;;;18.65;10.68;;;;;;;;;;5102947;28;20024;-68
2023/12/01 10:03:50;;;;;;;18.05;9.15;;;3.20;99.90;;;;;;5097712;28;20028;-68
2023/12/01 10:06:17;;;;;;;19.25;10.63;;;3.20;99.90;;;;;;5082774;28;20036;-68
2023/12/01 10:08:43;;;;;;;21.52;11.90;;;3.20;99.90;;;;;;5084868;28;20039;-68
2023/12/01 10:11:25;;;;;;;21.40;10.52;;;3.30;99.90;;;;;;5091522;28;20039;-68
2023/12/01 10:13:51;;;;;;;21.23;9.55;;;;;;;;;;5083093;28;20039;-69
2023/12/01 10:16:18;;;;;;;16.10;8.93;;;3.30;99.90;;;;;;5082500;28;20008;-68
2023/12/01 10:19:11;;;;;;;20.05;10.32;;;3.50;99.90;;;;;;5082619;28;20044;-68
2023/12/01 10:21:41;;;;;;;18.05;9.68;;;3.30;99.90;;;;;;5080897;28;20055;-68
2023/12/01 10:24:20;;;;;;;20.13;10.48;;;3.40;99.90;;;;;;5082331;28;20043;-69
2023/12/01 10:26:47;;;;;;;16.20;9.57;;;3.50;99.90;;;;;;5082214;28;20236;-69
2023/12/01 10:29:31;;;;;;;20.88;10.57;;;3.50;99.90;;;;;;5082418;28;20092;-68
2023/12/01 10:31:59;;;;;;;19.15;10.15;;;3.60;99.90;;;;;;5082216;28;20043;-68
2023/12/01 10:34:25;;;;;;;18.67;10.07;;;3.60;99.90;;;;;;5082274;28;20021;-67
2023/12/01 10:36:54;;;;;;;22.65;11.77;;;;;;;;;;5082276;28;20248;-68
2023/12/01 10:39:25;;;;;;;18.77;9.60;;;3.60;99.90;;;;;;5082148;28;20013;-70
2023/12/01 10:41:52;;;;;;;18.27;10.07;;;3.60;99.90;;;;;;5080845;28;20063;-70
2023/12/01 10:44:23;;;;;;;15.93;9.27;;;3.60;99.90;;;;;;5081973;28;20026;-70
2023/12/01 10:46:49;;;;;;;18.08;10.98;;;;;;;;;;5082092;28;20092;-70
2023/12/01 10:49:18;;;;;;;15.35;9.82;;;3.30;99.90;;;;;;5081830;28;20017;-70
2023/12/01 10:51:52;;;;;;;14.70;9.23;;;3.50;99.90;;;;;;5093198;28;20028;-70
2023/12/01 10:54:21;;;;;;;19.02;10.65;;;3.70;99.90;;;;;;5102302;28;20028;-70
2023/12/01 10:57:14;;;;;;;12.38;8.75;;;3.60;99.90;;;;;;5097720;28;20059;-70
2023/12/01 10:59:45;;;;;;;13.48;8.85;;;3.40;99.90;;;;;;5101999;28;20054;-70
2023/12/01 11:02:14;;;;;;;14.65;9.13;;;3.50;99.90;;;;;;5101967;28;20077;-69
2023/12/01 11:04:44;;;;;;;15.82;9.75;;;3.10;99.90;;;;;;5098449;28;20051;-69
2023/12/01 11:07:34;;;;;;;17.85;10.40;;;3.40;99.90;;;;;;5083162;28;20087;-69
2023/12/01 11:10:14;;;;;;;15.98;9.55;;;3.10;99.90;;;;;;5081513;28;20044;-69
2023/12/01 11:13:01;;;;;;;21.33;10.73;;;3.50;99.90;;;;;;5089311;28;20023;-70
2023/12/01 11:15:30;;;;;;;19.02;10.68;;;3.50;99.90;;;;;;5101634;28;20043;-69
2023/12/01 11:17:56;;;;;;;19.83;10.05;;;3.60;99.90;;;;;;5099005;28;20016;-69
2023/12/01 11:20:46;;;;;;;14.88;10.32;;;3.60;99.90;;;;;;5099699;28;20043;-69
2023/12/01 11:23:15;;;;;;;18.45;10.30;;;;;;;;;;5079290;28;20035;-70
2023/12/01 11:25:49;;;;;;;14.43;8.82;;;3.50;99.90;;;;;;5080981;28;20060;-69
2023/12/01 11:28:27;;;;;;;16.92;10.32;;;3.50;99.90;;;;;;5080914;28;20067;-70
2023/12/01 11:31:01;;;;;;;15.57;9.57;;;3.50;99.90;;;;;;5095973;28;20351;-70
2023/12/01 11:33:39;;;;;;;19.60;10.48;;;3.50;99.90;;;;;;5101016;28;20373;-69
2023/12/01 11:36:24;;;;;;;17.58;10.27;;;3.40;99.90;;;;;;5101092;28;20024;-68
2023/12/01 11:39:11;;;;;;;19.45;11.07;;;3.40;99.90;;;;;;5099891;28;20048;-68
2023/12/01 11:41:46;;;;;;;14.82;8.82;;;3.40;99.90;;;;;;5100698;28;20038;-69
2023/12/01 11:44:23;;;;;;;16.23;9.90;;;3.20;99.90;;;;;;5100981;28;20024;-68
2023/12/01 11:46:56;;;;;;;16.58;8.80;;;3.50;99.90;;;;;;5099818;28;20035;-68
2023/12/01 11:49:23;;;;;;;16.63;9.68;;;3.50;99.90;;;;;;5084139;28;20032;-68
2023/12/01 11:51:49;;;;;;;14.50;8.55;;;3.40;99.90;;;;;;5083608;28;20040;-68
2023/12/01 11:54:15;;;;;;;14.82;9.07;;;3.40;99.90;;;;;;5082523;28;20017;-68
2023/12/01 11:56:47;;;;;;;7.30;4.38;;;3.70;99.90;;;;;;5080530;28;20033;-69
2023/12/01 11:59:13;;;;;;;10.02;6.40;;;;;;;;;;5097072;28;20030;-68
2023/12/01 12:01:39;;;;;;;10.80;6.43;;;;;;;;;;5100709;28;20032;-68
2023/12/01 12:04:09;;;;;;;8.00;5.68;;;3.60;99.90;;;;;;5084012;28;20555;-69
2023/12/01 12:06:35;;;;;;;8.98;6.65;;;3.40;99.90;;;;;;5080609;28;20130;-69
2023/12/01 12:09:06;;;;;;;8.57;5.82;;;3.90;99.90;;;;;;5080353;28;20021;-68
2023/12/01 12:11:36;;;;;;;4.88;4.22;;;3.60;99.90;;;;;;5080559;28;20320;-70
2023/12/01 12:14:06;;;;;;;5.22;3.85;;;3.70;99.90;;;;;;5080401;28;20066;-68
2023/12/01 12:16:33;;;;;;;4.88;3.42;;;3.40;99.90;;;;;;5080220;28;20304;-68
2023/12/01 12:19:00;;;;;;;4.55;3.38;;;3.60;99.90;;;;;;5080199;28;20025;-69
2023/12/01 12:21:29;;;;;;;5.57;4.00;;;3.70;99.90;;;;;;5080109;28;20094;-68
2023/12/01 12:23:59;;;;;;;4.97;3.45;;;3.60;99.90;;;;;;5080422;28;20033;-68
2023/12/01 12:26:26;;;;;;;6.28;4.63;;;3.90;99.90;;;;;;5080159;28;20045;-68
2023/12/01 12:28:55;;;;;;;6.38;4.72;;;3.80;99.90;;;;;;5080081;28;20031;-68
2023/12/01 12:31:25;;;;;;;13.02;7.25;;;3.80;99.90;;;;;;5080391;28;20104;-68
2023/12/01 12:33:58;;;;;;;11.18;6.15;;;3.90;99.90;;;;;;5080175;28;20223;-68
2023/12/01 12:36:29;;;;;;;11.90;5.78;;;3.80;99.90;;;;;;5080493;28;20036;-68
2023/12/01 12:38:58;;;;;;;7.15;5.53;;;3.50;99.90;;;;;;5079992;28;20324;-68
2023/12/01 12:41:27;;;;;;;6.28;4.15;;;3.70;99.90;;;;;;5086128;28;20062;-68
2023/12/01 12:43:54;;;;;;;8.55;4.50;;;3.80;99.90;;;;;;5099240;28;20016;-70
2023/12/01 12:46:19;;;;;;;7.97;5.07;;;3.50;99.90;;;;;;5084379;28;20048;-69
2023/12/01 12:48:46;;;;;;;10.45;4.85;;;3.60;99.90;;;;;;5089929;28;20344;-69
2023/12/01 12:51:17;;;;;;;9.93;5.97;;;3.80;99.90;;;;;;5089344;28;20063;-68
2023/12/01 12:53:46;;;;;;;10.50;6.80;;;3.40;99.90;;;;;;5101609;28;20200;-69
2023/12/01 12:56:15;;;;;;;9.77;5.60;;;3.60;99.90;;;;;;5089514;28;20028;-68
2023/12/01 12:58:42;;;;;;;8.68;4.70;;;3.60;99.90;;;;;;5096822;28;20028;-69
2023/12/01 13:01:09;;;;;;;8.45;4.88;;;3.40;99.90;;;;;;5091580;28;20316;-68
2023/12/01 13:03:36;;;;;;;9.25;5.60;;;;;;;;;;5083775;28;20035;-68
2023/12/01 13:06:01;;;;;;;7.85;5.10;;;3.50;99.90;;;;;;5082180;28;20354;-67